createdAt,value
2022-10-26T00:00:33.401Z,95.00
2022-10-26T00:03:00.515Z,96.36
2022-10-26T00:05:27.613Z,98.38
2022-10-26T00:07:54.732Z,99.63
2022-10-26T00:10:21.974Z,99.47
2022-10-26T00:12:50.925Z,98.61
2022-10-26T00:15:19.382Z,97.71
2022-10-26T00:17:47.849Z,96.84
2022-10-26T00:20:15.449Z,96.68
2022-10-26T00:22:42.572Z,96.80
2022-10-26T00:25:10.017Z,97.08
2022-10-26T00:27:37.486Z,96.27
2022-10-26T00:30:05.512Z,96.53
2022-10-26T00:32:33.292Z,98.33
2022-10-26T00:35:10.429Z,98.98
2022-10-26T00:37:48.143Z,98.39
2022-10-26T00:40:15.373Z,99.45
2022-10-26T00:42:42.494Z,100.00
2022-10-26T00:45:19.418Z,100.00
2022-10-26T00:48:01.729Z,100.00
2022-10-26T00:50:32.828Z,100.00
2022-10-26T00:53:03.381Z,100.00
2022-10-26T00:55:36.047Z,100.00
2022-10-26T00:58:05.953Z,99.07
2022-10-26T01:00:33.015Z,98.29
2022-10-26T01:03:02.717Z,98.23
2022-10-26T01:05:30.655Z,98.13
2022-10-26T01:07:58.111Z,97.79
2022-10-26T01:10:25.805Z,97.59
2022-10-26T01:12:53.733Z,97.67
2022-10-26T01:15:23.912Z,97.34
2022-10-26T01:17:51.453Z,97.02
2022-10-26T01:20:21.602Z,97.42
2022-10-26T01:22:48.680Z,97.32
2022-10-26T01:25:15.793Z,97.35
2022-10-26T01:27:45.378Z,97.32
2022-10-26T01:30:31.017Z,97.02
2022-10-26T01:33:07.069Z,96.92
2022-10-26T01:35:39.955Z,96.97
2022-10-26T01:38:11.119Z,97.40
2022-10-26T01:40:43.184Z,97.26
2022-10-26T01:43:12.188Z,97.31
2022-10-26T01:45:42.250Z,97.96
2022-10-26T01:48:10.752Z,99.27
2022-10-26T01:50:38.656Z,98.78
2022-10-26T01:53:05.795Z,98.49
2022-10-26T01:55:38.787Z,98.31
2022-10-26T01:58:24.399Z,99.04
2022-10-26T02:01:11.839Z,100.00
2022-10-26T02:03:45.765Z,98.90
2022-10-26T02:06:19.562Z,98.58
2022-10-26T02:08:52.499Z,99.29
2022-10-26T02:11:38.234Z,99.67
2022-10-26T02:14:12.881Z,99.23
2022-10-26T02:16:40.020Z,99.11
2022-10-26T02:19:17.726Z,98.76
2022-10-26T02:21:47.168Z,98.74
2022-10-26T02:24:15.936Z,98.67
2022-10-26T02:26:45.799Z,97.69
2022-10-26T02:29:15.574Z,97.71
2022-10-26T02:31:43.672Z,98.62
2022-10-26T02:34:13.302Z,99.34
2022-10-26T02:36:44.404Z,99.95
2022-10-26T02:39:14.249Z,100.00
2022-10-26T02:41:43.239Z,99.96
2022-10-26T02:44:30.580Z,99.65
2022-10-26T02:46:58.143Z,100.00
2022-10-26T02:49:25.850Z,100.00
2022-10-26T02:52:15.425Z,100.00
2022-10-26T02:54:51.280Z,100.00
2022-10-26T02:57:26.160Z,100.00
2022-10-26T02:59:54.081Z,100.00
2022-10-26T03:02:22.724Z,100.00
2022-10-26T03:04:50.853Z,100.00
2022-10-26T03:07:21.816Z,100.00
2022-10-26T03:09:48.947Z,100.00
2022-10-26T03:12:16.139Z,100.00
2022-10-26T03:14:43.389Z,100.00
2022-10-26T03:17:10.567Z,100.00
2022-10-26T03:19:37.694Z,100.00
2022-10-26T03:22:04.760Z,100.00
2022-10-26T03:24:31.908Z,100.00
2022-10-26T03:27:02.054Z,100.00
2022-10-26T03:29:29.681Z,100.00
2022-10-26T03:31:56.890Z,100.00
2022-10-26T03:34:23.937Z,100.00
2022-10-26T03:36:51.111Z,100.00
2022-10-26T03:39:18.289Z,100.00
2022-10-26T03:41:45.591Z,100.00
2022-10-26T03:44:12.807Z,100.00
2022-10-26T03:46:39.934Z,100.00
2022-10-26T03:49:07.048Z,100.00
2022-10-26T03:51:34.230Z,100.00
2022-10-26T03:54:01.360Z,100.00
2022-10-26T03:56:28.499Z,99.91
2022-10-26T03:58:55.709Z,100.00
2022-10-26T04:01:22.933Z,100.00
2022-10-26T04:03:50.160Z,100.00
2022-10-26T04:06:17.264Z,99.97
2022-10-26T04:08:44.432Z,99.41
2022-10-26T04:11:11.669Z,97.68
2022-10-26T04:13:39.006Z,96.96
2022-10-26T04:16:06.239Z,97.24
2022-10-26T04:18:33.396Z,97.06
2022-10-26T04:21:01.093Z,97.48
2022-10-26T04:23:28.342Z,97.96
2022-10-26T04:25:55.534Z,97.85
2022-10-26T04:28:22.792Z,99.53
2022-10-26T04:30:49.989Z,100.00
2022-10-26T04:33:17.109Z,100.00
2022-10-26T04:35:45.639Z,100.00
2022-10-26T04:38:12.854Z,100.00
2022-10-26T04:40:40.022Z,99.64
2022-10-26T04:43:07.198Z,99.03
2022-10-26T04:45:34.573Z,98.66
2022-10-26T04:48:06.519Z,97.95
2022-10-26T04:50:34.221Z,97.57
2022-10-26T04:53:09.934Z,97.58
2022-10-26T04:55:37.191Z,97.81
2022-10-26T04:58:04.776Z,97.49
2022-10-26T05:00:33.057Z,97.28
2022-10-26T05:03:01.235Z,97.78
2022-10-26T05:05:28.718Z,97.83
2022-10-26T05:07:56.497Z,97.35
2022-10-26T05:10:24.390Z,97.41
2022-10-26T05:12:55.277Z,97.60
2022-10-26T05:15:22.883Z,97.84
2022-10-26T05:17:57.421Z,97.36
2022-10-26T05:20:29.805Z,96.65
2022-10-26T05:23:04.011Z,96.61
2022-10-26T05:25:31.953Z,96.58
2022-10-26T05:28:00.054Z,96.38
2022-10-26T05:30:28.103Z,96.84
2022-10-26T05:32:56.089Z,97.17
2022-10-26T05:35:23.832Z,96.99
2022-10-26T05:37:50.947Z,97.14
2022-10-26T05:40:18.079Z,97.92
2022-10-26T05:42:45.339Z,98.33
2022-10-26T05:45:12.869Z,98.14
2022-10-26T05:47:41.293Z,98.35
2022-10-26T05:50:08.849Z,100.00
2022-10-26T05:52:42.729Z,100.00
2022-10-26T05:55:10.752Z,100.00
2022-10-26T05:57:38.442Z,100.00
2022-10-26T06:00:10.164Z,100.00
2022-10-26T06:02:46.027Z,100.00
2022-10-26T06:05:16.653Z,100.00
2022-10-26T06:07:45.267Z,100.00
2022-10-26T06:10:12.909Z,100.00
2022-10-26T06:12:40.167Z,100.00
2022-10-26T06:15:08.010Z,100.00
2022-10-26T06:17:55.439Z,100.00
2022-10-26T06:20:31.755Z,100.00
2022-10-26T06:23:07.686Z,100.00
2022-10-26T06:25:52.494Z,100.00
2022-10-26T06:28:38.486Z,100.00
2022-10-26T06:31:05.717Z,100.00
2022-10-26T06:33:33.237Z,100.00
2022-10-26T06:36:08.061Z,100.00
2022-10-26T06:38:35.658Z,99.56
2022-10-26T06:41:03.667Z,98.78
2022-10-26T06:43:32.250Z,98.28
2022-10-26T06:45:59.341Z,98.44
2022-10-26T06:48:28.375Z,98.37
2022-10-26T06:50:55.700Z,96.98
2022-10-26T06:56:11.581Z,99.11
2022-10-26T06:58:39.751Z,97.78
2022-10-26T07:01:07.101Z,98.05
2022-10-26T07:03:34.369Z,98.24
2022-10-26T07:06:01.534Z,98.22
2022-10-26T07:08:29.965Z,98.96
2022-10-26T07:10:57.056Z,99.07
2022-10-26T07:13:24.188Z,99.32
2022-10-26T07:15:51.401Z,97.63
2022-10-26T07:18:18.673Z,96.41
2022-10-26T07:20:45.805Z,95.74
2022-10-26T07:23:13.018Z,95.09
2022-10-26T07:25:40.641Z,94.70
2022-10-26T07:28:10.273Z,93.88
2022-10-26T07:30:38.484Z,92.71
2022-10-26T07:33:10.513Z,91.86
2022-10-26T07:35:37.741Z,91.75
2022-10-26T07:38:05.419Z,91.71
2022-10-26T07:40:32.655Z,93.19
2022-10-26T07:43:00.736Z,93.96
2022-10-26T07:45:28.558Z,93.09
2022-10-26T07:47:55.961Z,93.88
2022-10-26T07:50:23.692Z,93.67
2022-10-26T07:52:51.224Z,92.94
2022-10-26T07:55:19.194Z,92.11
2022-10-26T07:57:48.538Z,90.81
2022-10-26T08:00:21.060Z,86.70
2022-10-26T08:02:48.195Z,86.14
2022-10-26T08:05:15.315Z,86.19
2022-10-26T08:08:00.839Z,86.89
2022-10-26T08:10:27.962Z,87.37
2022-10-26T08:12:55.118Z,87.76
2022-10-26T08:15:22.259Z,87.57
2022-10-26T08:17:49.630Z,87.46
2022-10-26T08:20:16.916Z,87.10
2022-10-26T08:22:44.063Z,87.42
2022-10-26T08:25:11.340Z,87.61
2022-10-26T08:27:38.487Z,85.30
2022-10-26T08:30:05.788Z,84.47
2022-10-26T08:32:32.996Z,84.54
2022-10-26T08:35:00.079Z,85.26
2022-10-26T08:37:29.180Z,86.10
2022-10-26T08:39:57.527Z,86.50
2022-10-26T08:42:30.472Z,85.85
2022-10-26T08:45:07.609Z,85.60
2022-10-26T08:47:37.774Z,85.68
2022-10-26T08:50:09.933Z,84.75
2022-10-26T08:52:55.688Z,85.04
2022-10-26T08:55:26.493Z,85.19
2022-10-26T08:57:53.864Z,85.65
2022-10-26T09:00:22.733Z,84.65
2022-10-26T09:02:51.134Z,84.11
2022-10-26T09:05:22.073Z,83.60
2022-10-26T09:07:49.566Z,84.20
2022-10-26T09:10:16.880Z,84.78
2022-10-26T09:12:48.384Z,85.15
2022-10-26T09:15:34.166Z,84.64
2022-10-26T09:18:22.058Z,84.39
2022-10-26T09:21:08.060Z,83.40
2022-10-26T09:23:35.220Z,83.54
2022-10-26T09:26:03.127Z,83.90
2022-10-26T09:28:33.011Z,83.59
2022-10-26T09:31:01.340Z,83.06
2022-10-26T09:33:29.199Z,83.23
2022-10-26T09:36:01.442Z,83.75
2022-10-26T09:38:34.328Z,83.76
2022-10-26T09:41:22.548Z,83.89
2022-10-26T09:44:06.430Z,83.86
2022-10-26T09:46:38.313Z,83.67
2022-10-26T09:49:07.059Z,83.35
2022-10-26T09:51:38.318Z,82.71
2022-10-26T09:54:23.404Z,82.25
2022-10-26T09:56:55.805Z,82.25
2022-10-26T09:59:24.365Z,83.25
2022-10-26T10:01:51.919Z,83.20
2022-10-26T10:04:21.175Z,82.32
2022-10-26T10:07:00.626Z,81.93
2022-10-26T10:09:27.816Z,80.75
2022-10-26T10:11:59.479Z,80.86
2022-10-26T10:14:34.695Z,80.75
2022-10-26T10:17:08.250Z,80.60
2022-10-26T10:19:36.791Z,79.69
2022-10-26T10:22:12.526Z,79.58
2022-10-26T10:24:43.729Z,79.70
2022-10-26T10:27:16.996Z,80.03
2022-10-26T10:29:44.108Z,79.60
2022-10-26T10:32:15.777Z,79.17
2022-10-26T10:34:43.397Z,79.05
2022-10-26T10:37:30.648Z,78.48
2022-10-26T10:40:04.087Z,77.43
2022-10-26T10:42:32.733Z,77.12
2022-10-26T10:45:01.427Z,76.92
2022-10-26T10:47:30.899Z,76.69
2022-10-26T10:49:58.174Z,75.92
2022-10-26T10:52:27.276Z,75.29
2022-10-26T10:55:03.645Z,74.86
2022-10-26T10:57:49.602Z,74.37
2022-10-26T11:00:17.797Z,74.56
2022-10-26T11:03:03.677Z,74.12
2022-10-26T11:05:48.081Z,72.36
2022-10-26T11:08:26.803Z,73.13
2022-10-26T11:10:58.105Z,73.99
2022-10-26T11:13:27.457Z,73.42
2022-10-26T11:15:59.461Z,73.34
2022-10-26T11:18:36.231Z,72.63
2022-10-26T11:21:10.398Z,72.66
2022-10-26T11:23:47.457Z,70.76
2022-10-26T11:26:17.853Z,71.93
2022-10-26T11:28:44.933Z,72.25
2022-10-26T11:31:15.318Z,71.68
2022-10-26T11:33:45.935Z,71.17
2022-10-26T11:36:19.719Z,70.27
2022-10-26T11:39:07.155Z,70.20
2022-10-26T11:41:43.249Z,70.25
2022-10-26T11:44:36.159Z,70.45
2022-10-26T11:47:35.573Z,69.73
2022-10-26T11:50:32.397Z,70.16
2022-10-26T11:53:04.626Z,69.99
2022-10-26T11:55:31.934Z,69.68
2022-10-26T11:57:59.576Z,69.54
2022-10-26T12:00:27.022Z,69.69
2022-10-26T12:02:54.142Z,69.30
2022-10-26T12:05:23.643Z,69.35
2022-10-26T12:07:53.574Z,68.97
2022-10-26T12:10:26.345Z,69.21
2022-10-26T12:13:16.592Z,68.97
2022-10-26T12:16:03.174Z,68.96
2022-10-26T12:18:54.047Z,69.01
2022-10-26T12:21:24.047Z,69.43
2022-10-26T12:23:57.244Z,69.50
2022-10-26T12:26:24.363Z,69.17
2022-10-26T12:29:03.739Z,69.00
2022-10-26T12:31:36.757Z,69.33
2022-10-26T12:34:14.425Z,68.70
2022-10-26T12:36:56.557Z,68.51
2022-10-26T12:39:40.528Z,68.62
2022-10-26T12:42:10.890Z,68.70
2022-10-26T12:45:13.521Z,68.63
2022-10-26T12:47:40.595Z,68.54
2022-10-26T12:50:07.749Z,69.16
2022-10-26T12:52:34.962Z,69.09
2022-10-26T12:55:20.310Z,69.27
2022-10-26T12:57:56.955Z,69.40
2022-10-26T13:00:26.031Z,69.64
2022-10-26T13:02:56.213Z,69.15
2022-10-26T13:05:35.301Z,68.77
2022-10-26T13:08:09.303Z,69.02
2022-10-26T13:10:38.201Z,68.66
2022-10-26T13:13:06.318Z,69.01
2022-10-26T13:15:38.497Z,68.90
2022-10-26T13:18:18.063Z,69.13
2022-10-26T13:21:03.719Z,69.32
2022-10-26T13:23:32.925Z,69.56
2022-10-26T13:26:09.635Z,69.73
2022-10-26T13:28:39.549Z,69.72
2022-10-26T13:31:09.763Z,70.04
2022-10-26T13:33:38.424Z,69.81
2022-10-26T13:36:31.800Z,70.02
2022-10-26T13:39:00.998Z,70.29
2022-10-26T13:41:36.901Z,70.21
2022-10-26T13:44:05.792Z,70.23
2022-10-26T13:46:36.053Z,70.21
2022-10-26T13:49:09.002Z,70.29
2022-10-26T13:51:41.071Z,70.50
2022-10-26T13:54:26.983Z,70.62
2022-10-26T13:57:01.930Z,70.24
2022-10-26T13:59:30.996Z,70.30
2022-10-26T14:02:18.187Z,70.47
2022-10-26T14:04:47.211Z,70.59
2022-10-26T14:07:23.189Z,70.74
2022-10-26T14:09:51.782Z,70.77
2022-10-26T14:12:18.982Z,70.82
2022-10-26T14:14:46.721Z,70.78
2022-10-26T14:17:20.664Z,70.71
2022-10-26T14:19:48.411Z,70.73
2022-10-26T14:22:23.382Z,70.60
2022-10-26T14:24:52.442Z,70.69
2022-10-26T14:27:20.958Z,70.53
2022-10-26T14:30:16.691Z,70.27
2022-10-26T14:32:37.138Z,70.30
2022-10-26T14:35:04.434Z,70.76
2022-10-26T14:37:40.576Z,70.84
2022-10-26T14:40:14.464Z,70.95
2022-10-26T14:42:44.547Z,71.17
2022-10-26T14:48:22.903Z,71.49
2022-10-26T14:51:01.889Z,71.78
2022-10-26T14:53:51.885Z,71.72
2022-10-26T14:56:23.629Z,71.75
2022-10-26T14:58:51.501Z,71.97
2022-10-26T15:01:21.730Z,71.91
2022-10-26T15:03:58.350Z,71.72
2022-10-26T15:06:28.662Z,72.18
2022-10-26T15:08:57.420Z,72.13
2022-10-26T15:11:25.383Z,71.98
2022-10-26T15:13:53.780Z,71.85
2022-10-26T15:16:20.914Z,72.07
2022-10-26T15:18:51.272Z,72.17
2022-10-26T15:21:22.868Z,72.40
2022-10-26T15:23:50.767Z,72.43
2022-10-26T15:26:18.114Z,72.69
2022-10-26T15:28:45.394Z,72.88
2022-10-26T15:31:12.501Z,72.95
2022-10-26T15:33:44.201Z,72.87
2022-10-26T15:36:15.957Z,73.15
2022-10-26T15:38:43.674Z,73.29
2022-10-26T15:41:16.293Z,73.53
2022-10-26T15:43:43.621Z,73.80
2022-10-26T15:46:10.754Z,74.15
2022-10-26T15:48:39.666Z,74.51
2022-10-26T15:51:07.676Z,74.89
2022-10-26T15:53:35.891Z,75.16
2022-10-26T15:56:05.480Z,75.26
2022-10-26T15:58:32.579Z,75.39
2022-10-26T16:00:59.806Z,75.66
2022-10-26T16:03:27.612Z,75.56
2022-10-26T16:05:58.746Z,75.71
2022-10-26T16:08:30.373Z,75.75
2022-10-26T16:10:57.843Z,76.05
2022-10-26T16:13:24.951Z,76.33
2022-10-26T16:15:52.007Z,76.40
2022-10-26T16:18:19.262Z,76.51
2022-10-26T16:20:46.397Z,76.69
2022-10-26T16:23:13.533Z,76.99
2022-10-26T16:25:42.561Z,77.03
2022-10-26T16:28:10.851Z,77.25
2022-10-26T16:30:38.174Z,76.91
2022-10-26T16:33:05.308Z,76.48
2022-10-26T16:35:32.672Z,76.10
2022-10-26T16:37:59.903Z,76.36
2022-10-26T16:40:27.157Z,76.79
2022-10-26T16:42:54.294Z,77.18
2022-10-26T16:45:21.405Z,77.27
2022-10-26T16:47:48.825Z,77.46
2022-10-26T16:50:16.339Z,77.25
2022-10-26T16:52:43.521Z,77.37
2022-10-26T16:55:10.711Z,77.77
2022-10-26T16:57:38.053Z,77.74
2022-10-26T17:00:05.859Z,78.06
2022-10-26T17:02:33.205Z,78.56
2022-10-26T17:05:02.888Z,78.77
2022-10-26T17:07:33.267Z,78.45
2022-10-26T17:10:00.491Z,78.60
2022-10-26T17:15:00.642Z,79.22
2022-10-26T17:17:27.891Z,79.50
2022-10-26T17:19:55.204Z,79.86
2022-10-26T17:22:22.291Z,80.33
2022-10-26T17:24:49.401Z,80.49
2022-10-26T17:27:17.428Z,80.75
2022-10-26T17:29:44.542Z,80.88
2022-10-26T17:32:13.356Z,80.97
2022-10-26T17:34:40.450Z,81.13
2022-10-26T17:37:07.618Z,81.35
2022-10-26T17:39:34.780Z,81.36
2022-10-26T17:42:02.022Z,81.27
2022-10-26T17:44:29.130Z,81.15
2022-10-26T17:46:56.252Z,81.59
2022-10-26T17:49:25.123Z,81.88
2022-10-26T17:51:55.168Z,81.84
2022-10-26T17:54:22.270Z,81.95
2022-10-26T17:56:49.501Z,81.98
2022-10-26T17:59:19.091Z,81.99
2022-10-26T18:01:46.365Z,82.35
2022-10-26T18:04:13.603Z,82.39
2022-10-26T18:06:40.759Z,82.52
2022-10-26T18:09:07.916Z,83.11
2022-10-26T18:11:35.004Z,84.07
2022-10-26T18:14:02.117Z,84.02
2022-10-26T18:16:30.406Z,84.01
2022-10-26T18:19:02.315Z,83.39
2022-10-26T18:21:30.868Z,83.10
2022-10-26T18:23:58.110Z,83.48
2022-10-26T18:26:26.599Z,83.96
2022-10-26T18:28:54.096Z,84.33
2022-10-26T18:31:22.317Z,84.21
2022-10-26T18:33:55.160Z,84.32
2022-10-26T18:36:22.537Z,85.11
2022-10-26T18:38:49.717Z,86.67
2022-10-26T18:41:18.873Z,86.81
2022-10-26T18:43:48.554Z,86.15
2022-10-26T18:46:19.176Z,86.63
2022-10-26T18:48:48.746Z,86.79
2022-10-26T18:51:17.085Z,86.83
2022-10-26T18:53:45.090Z,87.87
2022-10-26T18:56:16.101Z,88.43
2022-10-26T18:58:44.295Z,88.68
2022-10-26T19:01:17.457Z,88.71
2022-10-26T19:03:45.208Z,88.62
2022-10-26T19:06:14.274Z,88.21
2022-10-26T19:08:41.798Z,88.17
2022-10-26T19:11:10.616Z,88.28
2022-10-26T19:13:38.323Z,89.94
2022-10-26T19:16:12.655Z,90.13
2022-10-26T19:18:49.220Z,90.72
2022-10-26T19:21:19.407Z,91.06
2022-10-26T19:23:47.806Z,90.89
2022-10-26T19:26:16.605Z,90.35
2022-10-26T19:28:43.922Z,90.37
2022-10-26T19:31:12.699Z,90.77
2022-10-26T19:33:40.525Z,90.56
2022-10-26T19:36:13.659Z,90.85
2022-10-26T19:38:41.425Z,91.03
2022-10-26T19:41:11.101Z,91.17
2022-10-26T19:43:39.544Z,92.19
2022-10-26T19:46:11.742Z,92.04
2022-10-26T19:48:39.878Z,91.81
2022-10-26T19:51:08.033Z,91.67
2022-10-26T19:53:35.578Z,91.81
2022-10-26T19:56:03.657Z,91.54
2022-10-26T19:58:31.683Z,91.33
2022-10-26T20:01:00.526Z,91.46
2022-10-26T20:03:29.028Z,92.25
2022-10-26T20:05:57.034Z,92.64
2022-10-26T20:08:24.861Z,92.46
2022-10-26T20:10:56.459Z,92.81
2022-10-26T20:13:23.896Z,92.23
2022-10-26T20:15:52.325Z,92.84
2022-10-26T20:18:20.153Z,93.13
2022-10-26T20:20:47.824Z,93.30
2022-10-26T20:23:15.352Z,92.92
2022-10-26T20:25:49.925Z,92.66
2022-10-26T20:28:18.613Z,92.25
2022-10-26T20:30:47.934Z,92.39
2022-10-26T20:33:15.216Z,92.23
2022-10-26T20:35:42.453Z,92.17
2022-10-26T20:38:15.876Z,92.11
2022-10-26T20:40:43.373Z,92.11
2022-10-26T20:43:10.607Z,92.05
2022-10-26T20:45:37.894Z,92.29
2022-10-26T20:48:05.211Z,92.35
2022-10-26T20:50:32.467Z,92.55
2022-10-26T20:53:18.182Z,92.25
2022-10-26T20:56:02.340Z,92.56
2022-10-26T20:58:50.112Z,92.48
2022-10-26T21:01:35.693Z,92.68
2022-10-26T21:04:03.749Z,92.92
2022-10-26T21:06:39.805Z,93.19
2022-10-26T21:09:07.862Z,93.36
2022-10-26T21:11:35.133Z,93.10
2022-10-26T21:14:03.311Z,92.59
2022-10-26T21:16:30.636Z,92.43
2022-10-26T21:18:58.770Z,92.57
2022-10-26T21:21:26.005Z,92.10
2022-10-26T21:23:54.007Z,92.38
2022-10-26T21:26:21.075Z,92.75
2022-10-26T21:28:48.817Z,92.46
2022-10-26T21:31:17.346Z,92.55
2022-10-26T21:33:45.868Z,92.98
2022-10-26T21:36:14.114Z,93.03
2022-10-26T21:38:42.691Z,93.18
2022-10-26T21:41:17.494Z,93.76
2022-10-26T21:43:48.940Z,93.65
2022-10-26T21:46:17.026Z,93.17
2022-10-26T21:48:44.806Z,93.26
2022-10-26T21:51:16.751Z,93.14
2022-10-26T21:53:44.108Z,92.62
2022-10-26T21:56:12.621Z,92.93
2022-10-26T21:58:40.431Z,93.33
2022-10-26T22:01:10.754Z,93.93
2022-10-26T22:03:38.409Z,93.79
2022-10-26T22:06:06.275Z,94.12
2022-10-26T22:08:33.535Z,94.15
2022-10-26T22:11:16.452Z,94.33
2022-10-26T22:13:44.023Z,96.18
2022-10-26T22:16:12.585Z,97.19
2022-10-26T22:18:41.015Z,95.99
2022-10-26T22:21:08.445Z,95.36
2022-10-26T22:23:37.476Z,95.85
2022-10-26T22:26:05.799Z,96.03
2022-10-26T22:28:33.694Z,95.82
2022-10-26T22:31:03.196Z,95.51
2022-10-26T22:33:30.353Z,95.73
2022-10-26T22:36:02.577Z,95.75
2022-10-26T22:38:29.749Z,95.64
2022-10-26T22:40:57.020Z,96.29
2022-10-26T22:43:24.198Z,96.57
2022-10-26T22:46:05.219Z,96.87
2022-10-26T22:48:32.783Z,97.00
2022-10-26T22:51:04.381Z,97.03
2022-10-26T22:53:31.468Z,96.82
2022-10-26T22:55:58.688Z,97.14
2022-10-26T22:58:25.816Z,97.31
2022-10-26T23:00:53.051Z,97.18
2022-10-26T23:03:20.160Z,97.26
2022-10-26T23:05:48.144Z,97.25
2022-10-26T23:08:15.400Z,97.15
2022-10-26T23:10:42.525Z,97.26
2022-10-26T23:13:09.707Z,97.14
2022-10-26T23:15:36.820Z,96.77
2022-10-26T23:18:04.067Z,96.90
2022-10-26T23:20:34.143Z,97.25
2022-10-26T23:23:01.708Z,96.85
2022-10-26T23:25:29.044Z,96.91
2022-10-26T23:27:56.147Z,97.28
2022-10-26T23:30:23.348Z,97.55
2022-10-26T23:32:50.573Z,97.25
2022-10-26T23:35:17.876Z,98.09
2022-10-26T23:37:45.106Z,98.24
2022-10-26T23:40:12.369Z,98.23
2022-10-26T23:42:39.568Z,98.20
2022-10-26T23:45:07.059Z,98.20
2022-10-26T23:47:34.208Z,98.52
2022-10-26T23:50:01.355Z,98.28
2022-10-26T23:52:28.499Z,97.61
2022-10-26T23:54:55.672Z,97.48
2022-10-26T23:57:22.740Z,97.38
2022-10-26T23:59:50.004Z,97.71
